Winnetka, Illinois
Current Conditions -  °F | °C
As of 12:52 AM on Sunday 21 Dec 2014 (Local Time) from KPWK Reporting Station
Overcast Overcast  
Wind Chill: 26°   Ceiling: 5000
Heat Index: 32°   Visibility: 8mi
Dew Point: 26°   Wind: 7mph
Humidity: 79%   Direction: 180°S
Pressure: 30.25"   Gusts: NA
Location:  42.11°N, 87.73°W
Report Text: KPWK 210652Z AUTO 18006KT 8SM OVC050 00/M03 A3025 RMK AO2 SLP249 T00001033
Loading
Personal Weather Stations






























Interactive Weather Map New forecast layout! Learn more

10-Day Weather Forecast

Advertisements
Track Severe Weather on mobile